createdAt,value
2019-02-15T00:00:43.134Z,14.97
2019-02-15T00:03:12.554Z,14.07
2019-02-15T00:05:42.324Z,14.80
2019-02-15T00:08:11.737Z,15.13
2019-02-15T00:10:40.618Z,16.60
2019-02-15T00:13:13.710Z,14.83
2019-02-15T00:15:41.569Z,15.80
2019-02-15T00:18:14.999Z,15.47
2019-02-15T00:20:48.494Z,14.67
2019-02-15T00:23:17.622Z,13.70
2019-02-15T00:25:46.964Z,15.70
2019-02-15T00:28:17.332Z,16.93
2019-02-15T00:30:47.314Z,16.00
2019-02-15T00:33:17.656Z,15.13
2019-02-15T00:35:48.254Z,16.00
2019-02-15T00:38:18.357Z,14.43
2019-02-15T00:40:47.946Z,14.27
2019-02-15T00:43:22.356Z,16.40
2019-02-15T00:45:58.347Z,14.67
2019-02-15T00:48:29.262Z,14.50
2019-02-15T00:51:16.761Z,14.57
2019-02-15T00:53:53.609Z,15.27
2019-02-15T00:56:34.025Z,13.77
2019-02-15T00:59:10.845Z,15.13
2019-02-15T01:01:50.801Z,14.27
2019-02-15T01:04:21.579Z,13.63
2019-02-15T01:06:55.400Z,14.40
2019-02-15T01:09:27.681Z,15.10
2019-02-15T01:12:10.441Z,15.47
2019-02-15T01:14:40.395Z,13.37
2019-02-15T01:17:09.485Z,15.00
2019-02-15T01:19:38.559Z,14.03
2019-02-15T01:22:08.882Z,14.80
2019-02-15T01:24:38.186Z,16.43
2019-02-15T01:27:20.867Z,16.20
2019-02-15T01:30:03.477Z,15.77
2019-02-15T01:32:43.216Z,13.40
2019-02-15T01:35:14.165Z,14.00
2019-02-15T01:37:44.717Z,13.93
2019-02-15T01:40:15.384Z,13.90
2019-02-15T01:42:46.272Z,15.00
2019-02-15T01:45:23.252Z,14.07
2019-02-15T01:47:52.236Z,13.73
2019-02-15T01:50:21.896Z,14.23
2019-02-15T01:52:51.338Z,13.30
2019-02-15T01:55:20.742Z,13.77
2019-02-15T01:57:50.555Z,12.70
2019-02-15T02:00:21.047Z,15.47
2019-02-15T02:02:50.129Z,13.73
2019-02-15T02:05:18.949Z,14.93
2019-02-15T02:07:48.378Z,13.90
2019-02-15T02:10:17.370Z,13.40
2019-02-15T02:12:46.789Z,15.30
2019-02-15T02:15:16.779Z,12.57
2019-02-15T02:17:46.231Z,13.07
2019-02-15T02:20:15.675Z,13.23
2019-02-15T02:22:45.804Z,12.50
2019-02-15T02:25:15.060Z,13.83
2019-02-15T02:27:44.973Z,13.40
2019-02-15T02:30:14.259Z,13.17
2019-02-15T02:32:44.231Z,14.17
2019-02-15T02:35:13.618Z,12.37
2019-02-15T02:37:42.735Z,13.03
2019-02-15T02:40:11.962Z,14.57
2019-02-15T02:42:41.233Z,13.70
2019-02-15T02:45:10.588Z,12.13
2019-02-15T02:47:40.061Z,14.70
2019-02-15T02:50:09.485Z,12.50
2019-02-15T02:52:38.694Z,14.60
2019-02-15T02:55:07.878Z,12.70
2019-02-15T02:57:37.032Z,13.47
2019-02-15T03:00:07.576Z,13.50
2019-02-15T03:02:37.151Z,12.50
2019-02-15T03:05:06.807Z,14.07
2019-02-15T03:07:36.670Z,12.60
2019-02-15T03:10:07.522Z,13.23
2019-02-15T03:12:37.077Z,12.23
2019-02-15T03:15:08.282Z,13.90
2019-02-15T03:17:37.461Z,12.50
2019-02-15T03:20:07.872Z,12.70
2019-02-15T03:22:38.008Z,12.30
2019-02-15T03:25:09.485Z,12.20
2019-02-15T03:27:39.618Z,14.10
2019-02-15T03:30:11.273Z,12.63
2019-02-15T03:32:40.707Z,12.00
2019-02-15T03:35:10.762Z,12.77
2019-02-15T03:37:41.979Z,12.13
2019-02-15T03:40:16.609Z,14.63
2019-02-15T03:42:46.084Z,13.83
2019-02-15T03:45:16.747Z,13.57
2019-02-15T03:47:47.142Z,13.20
2019-02-15T03:50:16.760Z,13.90
2019-02-15T03:52:46.023Z,14.77
2019-02-15T03:55:15.328Z,12.83
2019-02-15T03:57:45.425Z,12.70
2019-02-15T04:00:14.723Z,13.60
2019-02-15T04:02:43.842Z,12.50
2019-02-15T04:05:13.089Z,14.10
2019-02-15T04:07:43.070Z,13.03
2019-02-15T04:10:12.591Z,11.97
2019-02-15T04:12:42.233Z,14.43
2019-02-15T04:15:12.374Z,13.13
2019-02-15T04:17:41.582Z,14.13
2019-02-15T04:20:10.673Z,12.97
2019-02-15T04:22:39.819Z,12.70
2019-02-15T04:25:09.414Z,13.43
2019-02-15T04:27:38.822Z,12.63
2019-02-15T04:30:11.447Z,12.87
2019-02-15T04:32:40.582Z,13.67
2019-02-15T04:35:10.958Z,12.40
2019-02-15T04:37:40.755Z,12.53
2019-02-15T04:40:12.721Z,12.07
2019-02-15T04:42:42.034Z,13.03
2019-02-15T04:45:12.762Z,13.20
2019-02-15T04:47:42.068Z,13.73
2019-02-15T04:50:11.962Z,13.17
2019-02-15T04:52:41.308Z,11.67
2019-02-15T04:55:11.349Z,12.47
2019-02-15T04:57:41.701Z,11.87
2019-02-15T05:00:11.579Z,11.60
2019-02-15T05:02:40.345Z,10.50
2019-02-15T05:05:11.014Z,11.63
2019-02-15T05:07:39.770Z,12.30
2019-02-15T05:10:09.274Z,13.73
2019-02-15T05:12:38.658Z,13.80
2019-02-15T05:15:09.093Z,12.43
2019-02-15T05:17:39.219Z,12.30
2019-02-15T05:20:08.906Z,12.90
2019-02-15T05:22:38.607Z,13.60
2019-02-15T05:25:08.639Z,11.87
2019-02-15T05:27:38.595Z,13.50
2019-02-15T05:30:09.925Z,12.67
2019-02-15T05:32:39.352Z,13.33
2019-02-15T05:35:08.906Z,12.37
2019-02-15T05:37:38.029Z,12.17
2019-02-15T05:40:08.190Z,14.20
2019-02-15T05:42:40.705Z,11.27
2019-02-15T05:45:09.541Z,12.33
2019-02-15T05:47:39.232Z,12.30
2019-02-15T05:50:09.135Z,11.30
2019-02-15T05:52:38.854Z,10.87
2019-02-15T05:55:08.580Z,10.30
2019-02-15T05:57:38.364Z,12.30
2019-02-15T06:00:10.408Z,10.60
2019-02-15T06:02:40.184Z,13.40
2019-02-15T06:05:11.143Z,14.47
2019-02-15T06:07:40.531Z,19.60
2019-02-15T06:10:10.227Z,20.33
2019-02-15T06:12:39.612Z,18.43
2019-02-15T06:15:15.052Z,16.50
2019-02-15T06:17:39.519Z,14.90
2019-02-15T06:20:10.273Z,12.90
2019-02-15T06:22:39.558Z,14.57
2019-02-15T06:25:08.991Z,13.67
2019-02-15T06:27:38.629Z,12.40
2019-02-15T06:30:09.602Z,12.10
2019-02-15T06:32:39.599Z,11.00
2019-02-15T06:35:09.156Z,13.10
2019-02-15T06:37:38.480Z,11.13
2019-02-15T06:40:08.084Z,13.47
2019-02-15T06:42:37.984Z,12.00
2019-02-15T06:45:08.173Z,12.87
2019-02-15T06:47:38.337Z,13.47
2019-02-15T06:50:08.834Z,13.30
2019-02-15T06:52:38.371Z,12.20
2019-02-15T06:55:08.822Z,13.30
2019-02-15T06:57:38.007Z,14.57
2019-02-15T07:00:24.149Z,13.70
2019-02-15T07:03:00.788Z,13.27
2019-02-15T07:05:30.370Z,12.50
2019-02-15T07:07:59.685Z,13.80
2019-02-15T07:10:30.072Z,13.80
2019-02-15T07:12:59.541Z,13.37
2019-02-15T07:15:33.773Z,13.10
2019-02-15T07:18:00.386Z,14.03
2019-02-15T07:20:29.439Z,14.83
2019-02-15T07:23:01.296Z,13.57
2019-02-15T07:25:31.141Z,13.60
2019-02-15T07:28:00.915Z,13.10
2019-02-15T07:30:31.926Z,13.90
2019-02-15T07:33:02.010Z,14.80
2019-02-15T07:35:31.288Z,13.90
2019-02-15T07:38:01.681Z,12.10
2019-02-15T07:40:32.242Z,13.07
2019-02-15T07:43:01.661Z,13.40
2019-02-15T07:45:31.699Z,13.27
2019-02-15T07:48:02.018Z,12.80
2019-02-15T07:50:31.732Z,12.43
2019-02-15T07:53:01.636Z,12.90
2019-02-15T07:55:31.344Z,13.07
2019-02-15T07:58:00.644Z,13.60
2019-02-15T08:00:30.710Z,12.60
2019-02-15T08:03:00.264Z,12.10
2019-02-15T08:05:30.124Z,11.93
2019-02-15T08:07:59.472Z,12.20
2019-02-15T08:10:29.507Z,14.20
2019-02-15T08:12:59.314Z,12.60
2019-02-15T08:15:35.854Z,13.50
2019-02-15T08:17:59.950Z,15.07
2019-02-15T08:20:29.576Z,15.07
2019-02-15T08:22:58.955Z,14.40
2019-02-15T08:25:29.364Z,13.03
2019-02-15T08:27:59.482Z,15.50
2019-02-15T08:30:29.451Z,14.30
2019-02-15T08:32:58.846Z,15.73
2019-02-15T08:35:29.299Z,14.73
2019-02-15T08:37:58.566Z,14.43
2019-02-15T08:40:28.094Z,13.20
2019-02-15T08:42:57.776Z,13.27
2019-02-15T08:45:27.395Z,15.60
2019-02-15T08:47:56.764Z,13.53
2019-02-15T08:50:26.333Z,13.17
2019-02-15T08:52:55.418Z,15.20
2019-02-15T08:55:24.824Z,15.97
2019-02-15T08:57:54.042Z,15.60
2019-02-15T09:00:23.891Z,16.10
2019-02-15T09:02:53.677Z,15.10
2019-02-15T09:05:23.000Z,13.93
2019-02-15T09:07:52.442Z,14.80
2019-02-15T09:10:22.261Z,16.97
2019-02-15T09:12:52.394Z,16.37
2019-02-15T09:15:23.637Z,16.67
2019-02-15T09:17:53.567Z,14.57
2019-02-15T09:20:23.255Z,15.10
2019-02-15T09:22:52.585Z,14.50
2019-02-15T09:25:21.820Z,13.93
2019-02-15T09:28:09.729Z,14.10
2019-02-15T09:30:39.355Z,15.17
2019-02-15T09:33:08.913Z,14.70
2019-02-15T09:35:38.555Z,16.17
2019-02-15T09:38:08.173Z,16.50
2019-02-15T09:40:38.809Z,14.30
2019-02-15T09:43:08.408Z,14.20
2019-02-15T09:45:38.275Z,16.00
2019-02-15T09:48:07.984Z,15.07
2019-02-15T09:50:37.598Z,15.20
2019-02-15T09:53:07.561Z,14.70
2019-02-15T09:55:37.086Z,13.83
2019-02-15T09:58:06.796Z,13.77
2019-02-15T10:00:37.662Z,13.37
2019-02-15T10:03:07.334Z,13.97
2019-02-15T10:05:36.733Z,12.87
2019-02-15T10:08:05.723Z,14.00
2019-02-15T10:10:35.474Z,12.60
2019-02-15T10:13:04.201Z,15.47
2019-02-15T10:15:34.550Z,12.30
2019-02-15T10:18:04.168Z,12.80
2019-02-15T10:20:33.917Z,13.30
2019-02-15T10:23:03.474Z,12.80
2019-02-15T10:25:33.028Z,12.30
2019-02-15T10:28:03.631Z,11.13
2019-02-15T10:30:33.517Z,11.73
2019-02-15T10:33:03.254Z,12.27
2019-02-15T10:35:33.225Z,11.67
2019-02-15T10:38:03.606Z,11.97
2019-02-15T10:40:32.492Z,12.50
2019-02-15T10:43:01.658Z,14.00
2019-02-15T10:45:31.030Z,12.20
2019-02-15T10:48:00.143Z,12.40
2019-02-15T10:50:29.832Z,12.83
2019-02-15T10:52:59.605Z,13.10
2019-02-15T10:55:29.420Z,12.37
2019-02-15T10:58:00.198Z,11.83
2019-02-15T11:00:29.778Z,12.40
2019-02-15T11:03:00.965Z,11.50
2019-02-15T11:05:30.785Z,14.10
2019-02-15T11:08:00.677Z,12.33
2019-02-15T11:10:31.906Z,11.80
2019-02-15T11:13:02.860Z,13.13
2019-02-15T11:15:32.584Z,13.60
2019-02-15T11:18:03.147Z,14.17
2019-02-15T11:20:32.676Z,11.40
2019-02-15T11:23:02.614Z,12.37
2019-02-15T11:25:32.263Z,12.97
2019-02-15T11:28:02.012Z,13.60
2019-02-15T11:30:31.603Z,11.63
2019-02-15T11:33:01.700Z,12.67
2019-02-15T11:35:31.391Z,12.80
2019-02-15T11:38:00.458Z,12.50
2019-02-15T11:40:30.130Z,11.33
2019-02-15T11:42:59.640Z,12.60
2019-02-15T11:45:29.204Z,12.87
2019-02-15T11:47:59.504Z,11.80
2019-02-15T11:50:29.537Z,12.23
2019-02-15T11:52:59.070Z,11.40
2019-02-15T11:55:28.893Z,12.83
2019-02-15T11:57:58.217Z,11.17
2019-02-15T12:00:29.342Z,11.40
2019-02-15T12:02:58.887Z,12.13
2019-02-15T12:05:28.315Z,11.80
2019-02-15T12:07:57.746Z,11.37
2019-02-15T12:10:28.725Z,11.87
2019-02-15T12:12:57.969Z,11.87
2019-02-15T12:15:27.799Z,10.13
2019-02-15T12:17:57.532Z,10.50
2019-02-15T12:20:27.796Z,11.83
2019-02-15T12:22:57.677Z,11.20
2019-02-15T12:25:28.465Z,11.00
2019-02-15T12:27:58.186Z,11.57
2019-02-15T12:30:27.777Z,10.97
2019-02-15T12:32:57.674Z,10.70
2019-02-15T12:35:28.054Z,11.17
2019-02-15T12:37:57.880Z,10.50
2019-02-15T12:40:28.325Z,11.27
2019-02-15T12:42:57.453Z,9.93
2019-02-15T12:45:27.063Z,10.40
2019-02-15T12:47:57.018Z,10.13
2019-02-15T12:50:26.377Z,10.30
2019-02-15T12:52:56.120Z,10.40
2019-02-15T12:55:26.233Z,10.33
2019-02-15T12:57:56.561Z,9.30
2019-02-15T13:00:26.518Z,11.03
2019-02-15T13:02:55.480Z,9.40
2019-02-15T13:05:25.861Z,8.07
2019-02-15T13:07:54.935Z,8.70
2019-02-15T13:10:26.553Z,8.80
2019-02-15T13:12:55.790Z,8.60
2019-02-15T13:15:26.608Z,9.60
2019-02-15T13:17:57.078Z,8.90
2019-02-15T13:20:26.352Z,8.10
2019-02-15T13:22:55.598Z,7.23
2019-02-15T13:25:25.820Z,7.67
2019-02-15T13:27:55.162Z,7.73
2019-02-15T13:30:24.857Z,7.00
2019-02-15T13:32:54.134Z,7.20
2019-02-15T13:35:24.612Z,7.37
2019-02-15T13:37:54.991Z,9.13
2019-02-15T13:40:25.131Z,9.43
2019-02-15T13:42:54.250Z,8.87
2019-02-15T13:45:24.133Z,10.20
2019-02-15T13:47:54.144Z,9.63
2019-02-15T13:50:23.065Z,10.80
2019-02-15T13:52:52.637Z,9.83
2019-02-15T13:55:23.851Z,11.10
2019-02-15T13:57:53.155Z,9.00
2019-02-15T14:00:24.412Z,9.17
2019-02-15T14:02:54.082Z,7.90
2019-02-15T14:05:23.905Z,8.40
2019-02-15T14:07:54.335Z,9.70
2019-02-15T14:10:23.880Z,8.60
2019-02-15T14:12:55.122Z,7.43
2019-02-15T14:15:24.201Z,8.33
2019-02-15T14:17:53.544Z,7.53
2019-02-15T14:20:23.096Z,8.07
2019-02-15T14:22:53.646Z,7.90
2019-02-15T14:25:23.367Z,7.93
2019-02-15T14:27:53.217Z,8.40
2019-02-15T14:30:22.683Z,8.97
2019-02-15T14:32:52.273Z,10.00
2019-02-15T14:35:21.461Z,9.10
2019-02-15T14:37:50.599Z,8.20
2019-02-15T14:40:20.822Z,9.03
2019-02-15T14:42:50.498Z,9.97
2019-02-15T14:45:19.849Z,9.20
2019-02-15T14:47:54.977Z,8.90
2019-02-15T14:50:21.170Z,8.80
2019-02-15T14:52:50.914Z,10.43
2019-02-15T14:55:20.083Z,8.80
2019-02-15T14:57:49.481Z,10.10
2019-02-15T15:00:18.979Z,10.83
2019-02-15T15:02:48.403Z,9.87
2019-02-15T15:05:18.202Z,10.60
2019-02-15T15:07:47.858Z,9.40
2019-02-15T15:10:17.156Z,10.27
2019-02-15T15:12:46.691Z,10.70
2019-02-15T15:15:17.823Z,10.90
2019-02-15T15:17:47.230Z,10.40
2019-02-15T15:20:17.922Z,10.90
2019-02-15T15:22:48.207Z,10.47
2019-02-15T15:25:18.486Z,9.83
2019-02-15T15:27:48.616Z,10.00
2019-02-15T15:30:18.956Z,10.47
2019-02-15T15:32:48.079Z,10.63
2019-02-15T15:35:18.017Z,10.10
2019-02-15T15:37:48.138Z,10.53
2019-02-15T15:40:20.370Z,10.80
2019-02-15T15:42:50.686Z,9.63
2019-02-15T15:45:22.017Z,10.63
2019-02-15T15:47:51.541Z,10.97
2019-02-15T15:50:21.350Z,10.47
2019-02-15T15:52:51.508Z,11.00
2019-02-15T15:55:22.648Z,11.00
2019-02-15T15:57:52.128Z,9.97
2019-02-15T16:00:22.154Z,10.30
2019-02-15T16:02:51.670Z,10.53
2019-02-15T16:05:22.332Z,11.20
2019-02-15T16:07:52.457Z,10.17
2019-02-15T16:10:22.593Z,9.33
2019-02-15T16:12:52.764Z,9.90
2019-02-15T16:15:21.850Z,9.57
2019-02-15T16:17:50.998Z,10.63
2019-02-15T16:20:19.815Z,10.70
2019-02-15T16:22:49.212Z,10.70
2019-02-15T16:25:18.548Z,9.43
2019-02-15T16:27:48.214Z,10.27
2019-02-15T16:30:17.489Z,9.40
2019-02-15T16:32:46.716Z,9.83
2019-02-15T16:35:16.014Z,9.67
2019-02-15T16:37:45.668Z,9.57
2019-02-15T16:40:15.527Z,10.97
2019-02-15T16:42:45.064Z,9.80
2019-02-15T16:45:15.988Z,9.90
2019-02-15T16:47:45.422Z,9.80
2019-02-15T16:50:14.945Z,10.43
2019-02-15T16:52:44.058Z,9.03
2019-02-15T16:55:14.031Z,10.30
2019-02-15T16:57:43.599Z,9.30
2019-02-15T17:00:14.881Z,9.50
2019-02-15T17:02:45.329Z,11.07
2019-02-15T17:05:15.327Z,9.43
2019-02-15T17:07:45.403Z,9.57
2019-02-15T17:10:16.141Z,10.50
2019-02-15T17:12:46.670Z,12.27
2019-02-15T17:15:16.623Z,14.10
2019-02-15T17:17:46.845Z,11.80
2019-02-15T17:20:16.504Z,10.20
2019-02-15T17:22:46.453Z,11.17
2019-02-15T17:25:16.438Z,12.23
2019-02-15T17:27:46.320Z,12.40
2019-02-15T17:30:15.821Z,10.90
2019-02-15T17:32:46.419Z,9.53
2019-02-15T17:35:16.806Z,11.20
2019-02-15T17:37:46.380Z,11.70
2019-02-15T17:40:17.634Z,14.23
2019-02-15T17:42:47.027Z,12.33
2019-02-15T17:45:16.514Z,12.27
2019-02-15T17:47:46.245Z,12.53
2019-02-15T17:50:15.612Z,11.30
2019-02-15T17:52:45.566Z,10.90
2019-02-15T17:55:16.274Z,10.83
2019-02-15T17:57:46.973Z,12.00
2019-02-15T18:00:18.472Z,13.10
2019-02-15T18:02:49.012Z,17.50
2019-02-15T18:05:18.570Z,17.97
2019-02-15T18:07:50.879Z,19.80
2019-02-15T18:10:21.050Z,22.07
2019-02-15T18:12:49.991Z,23.67
2019-02-15T18:15:19.751Z,21.90
2019-02-15T18:17:50.437Z,22.73
2019-02-15T18:20:19.961Z,19.57
2019-02-15T18:22:49.668Z,18.53
2019-02-15T18:25:19.630Z,19.97
2019-02-15T18:27:49.197Z,21.23
2019-02-15T18:30:19.270Z,18.20
2019-02-15T18:32:49.398Z,14.90
2019-02-15T18:35:19.164Z,14.77
2019-02-15T18:37:48.808Z,14.23
2019-02-15T18:40:18.653Z,13.33
2019-02-15T18:42:49.095Z,16.40
2019-02-15T18:45:19.933Z,19.17
2019-02-15T18:47:49.407Z,18.20
2019-02-15T18:50:20.459Z,15.97
2019-02-15T18:52:51.318Z,15.60
2019-02-15T18:55:22.151Z,13.70
2019-02-15T18:57:51.844Z,12.17
2019-02-15T19:00:21.768Z,11.90
2019-02-15T19:02:52.534Z,12.77
2019-02-15T19:05:22.698Z,10.87
2019-02-15T19:07:52.798Z,11.20
2019-02-15T19:10:24.556Z,9.80
2019-02-15T19:12:53.881Z,9.90
2019-02-15T19:15:23.706Z,10.90
2019-02-15T19:17:53.398Z,11.07
2019-02-15T19:20:25.123Z,10.93
2019-02-15T19:22:57.014Z,10.33
2019-02-15T19:25:28.530Z,10.50
2019-02-15T19:27:58.430Z,11.67
2019-02-15T19:30:36.945Z,10.53
2019-02-15T19:33:10.061Z,11.77
2019-02-15T19:35:53.275Z,10.63
2019-02-15T19:38:22.724Z,11.97
2019-02-15T19:40:57.128Z,11.50
2019-02-15T19:43:26.790Z,10.40
2019-02-15T19:46:04.843Z,10.03
2019-02-15T19:48:36.708Z,12.07
2019-02-15T19:51:16.469Z,12.13
2019-02-15T19:54:05.923Z,10.40
2019-02-15T19:56:27.586Z,10.30
2019-02-15T19:58:59.170Z,12.33
2019-02-15T20:01:40.795Z,11.67
2019-02-15T20:04:01.276Z,13.67
2019-02-15T20:06:38.281Z,14.20
2019-02-15T20:09:17.269Z,12.57
2019-02-15T20:11:52.812Z,11.30
2019-02-15T20:14:26.728Z,11.53
2019-02-15T20:17:05.223Z,10.57
2019-02-15T20:19:48.582Z,11.77
2019-02-15T20:22:21.966Z,11.30
2019-02-15T20:24:59.820Z,11.10
2019-02-15T20:27:39.593Z,11.30
2019-02-15T20:30:35.324Z,9.43
2019-02-15T20:33:26.058Z,11.50
2019-02-15T20:35:58.709Z,12.47
2019-02-15T20:38:30.724Z,11.73
2019-02-15T20:41:05.923Z,10.17
2019-02-15T20:43:36.474Z,10.57
2019-02-15T20:46:09.217Z,10.50
2019-02-15T20:48:40.518Z,11.30
2019-02-15T20:51:10.278Z,10.40
2019-02-15T20:53:40.781Z,11.40
2019-02-15T20:56:10.182Z,11.83
2019-02-15T20:58:40.853Z,12.40
2019-02-15T21:01:10.476Z,11.87
2019-02-15T21:03:41.400Z,13.40
2019-02-15T21:06:14.557Z,11.50
2019-02-15T21:08:43.831Z,12.70
2019-02-15T21:11:13.289Z,14.20
2019-02-15T21:13:43.173Z,13.30
2019-02-15T21:16:12.954Z,12.23
2019-02-15T21:18:44.116Z,13.00
2019-02-15T21:21:13.856Z,13.10
2019-02-15T21:23:44.207Z,12.70
2019-02-15T21:26:13.849Z,13.73
2019-02-15T21:28:43.547Z,13.20
2019-02-15T21:31:12.826Z,11.67
2019-02-15T21:33:43.792Z,10.60
2019-02-15T21:36:13.299Z,16.80
2019-02-15T21:38:43.139Z,14.73
2019-02-15T21:41:13.187Z,12.10
2019-02-15T21:43:43.451Z,12.37
2019-02-15T21:46:12.581Z,10.63
2019-02-15T21:48:42.416Z,12.27
2019-02-15T21:51:12.417Z,13.63
2019-02-15T21:53:41.998Z,11.40
2019-02-15T21:56:11.912Z,11.27
2019-02-15T21:58:42.454Z,11.23
2019-02-15T22:01:11.837Z,11.77
2019-02-15T22:03:41.906Z,11.37
2019-02-15T22:06:11.222Z,11.80
2019-02-15T22:08:40.529Z,11.10
2019-02-15T22:11:10.017Z,10.87
2019-02-15T22:13:39.631Z,11.23
2019-02-15T22:16:09.777Z,11.43
2019-02-15T22:18:39.390Z,11.70
2019-02-15T22:21:08.940Z,11.60
2019-02-15T22:23:37.924Z,13.43
2019-02-15T22:26:07.329Z,12.27
2019-02-15T22:28:36.335Z,12.13
2019-02-15T22:31:05.559Z,12.93
2019-02-15T22:33:35.445Z,11.47
2019-02-15T22:36:04.965Z,11.70
2019-02-15T22:38:34.147Z,12.70
2019-02-15T22:41:06.596Z,12.90
2019-02-15T22:43:35.737Z,12.10
2019-02-15T22:46:06.200Z,12.57
2019-02-15T22:48:36.100Z,13.33
2019-02-15T22:51:06.425Z,12.50
2019-02-15T22:53:36.593Z,12.20
2019-02-15T22:56:06.134Z,11.70
2019-02-15T22:58:36.885Z,10.70
2019-02-15T23:01:10.267Z,11.37
2019-02-15T23:03:40.425Z,11.73
2019-02-15T23:06:11.151Z,11.63
2019-02-15T23:08:41.460Z,11.90
2019-02-15T23:11:12.038Z,11.70
2019-02-15T23:13:42.521Z,9.90
2019-02-15T23:16:12.393Z,11.03
2019-02-15T23:18:42.576Z,12.00
2019-02-15T23:21:12.613Z,11.50
2019-02-15T23:23:43.027Z,13.20
2019-02-15T23:26:12.473Z,11.33
2019-02-15T23:28:42.480Z,11.10
2019-02-15T23:31:12.115Z,11.10
2019-02-15T23:33:42.815Z,11.07
2019-02-15T23:36:12.865Z,11.90
2019-02-15T23:38:42.447Z,11.40
2019-02-15T23:41:12.889Z,11.10
2019-02-15T23:43:43.120Z,12.83
2019-02-15T23:46:12.622Z,12.97
2019-02-15T23:48:42.048Z,12.13
2019-02-15T23:51:12.457Z,12.10
2019-02-15T23:53:41.651Z,13.23
2019-02-15T23:56:11.094Z,12.67
2019-02-15T23:58:41.204Z,13.03
